sensor_id;sensor_type;location;lat;lon;timestamp;pressure;altitude;pressure_sealevel;temperature;humidity
64739;BME280;51175;51.186;0.276;2023-08-20T00:00:19;101633.66;;;23.81;55.16
64739;BME280;51175;51.186;0.276;2023-08-20T00:00:51;101634.00;;;23.80;55.38
64739;BME280;51175;51.186;0.276;2023-08-20T00:01:25;101634.00;;;23.80;55.17
64739;BME280;51175;51.186;0.276;2023-08-20T00:01:57;101636.69;;;23.80;55.30
64739;BME280;51175;51.186;0.276;2023-08-20T00:02:30;101643.97;;;23.79;55.27
64739;BME280;51175;51.186;0.276;2023-08-20T00:03:12;101639.72;;;23.78;55.33
64739;BME280;51175;51.186;0.276;2023-08-20T00:03:44;101638.91;;;23.78;55.20
64739;BME280;51175;51.186;0.276;2023-08-20T00:04:16;101638.09;;;23.77;55.32
64739;BME280;51175;51.186;0.276;2023-08-20T00:04:48;101633.53;;;23.78;55.33
64739;BME280;51175;51.186;0.276;2023-08-20T00:05:19;101640.81;;;23.77;55.30
64739;BME280;51175;51.186;0.276;2023-08-20T00:05:50;101636.22;;;23.78;55.30
64739;BME280;51175;51.186;0.276;2023-08-20T00:06:21;101637.34;;;23.77;55.31
64739;BME280;51175;51.186;0.276;2023-08-20T00:06:52;101631.16;;;23.76;55.33
64739;BME280;51175;51.186;0.276;2023-08-20T00:07:23;101637.66;;;23.75;55.22
64739;BME280;51175;51.186;0.276;2023-08-20T00:07:53;101638.44;;;23.76;55.10
64739;BME280;51175;51.186;0.276;2023-08-20T00:08:23;101638.44;;;23.76;55.16
64739;BME280;51175;51.186;0.276;2023-08-20T00:08:54;101634.97;;;23.75;55.14
64739;BME280;51175;51.186;0.276;2023-08-20T00:09:24;101634.16;;;23.75;55.33
64739;BME280;51175;51.186;0.276;2023-08-20T00:09:57;101634.16;;;23.75;55.32
64739;BME280;51175;51.186;0.276;2023-08-20T00:10:27;101636.06;;;23.74;54.97
64739;BME280;51175;51.186;0.276;2023-08-20T00:10:58;101636.84;;;23.75;55.31
64739;BME280;51175;51.186;0.276;2023-08-20T00:11:28;101647.66;;;23.75;55.29
64739;BME280;51175;51.186;0.276;2023-08-20T00:11:58;101638.75;;;23.74;55.42
64739;BME280;51175;51.186;0.276;2023-08-20T00:12:29;101638.75;;;23.74;55.41
64739;BME280;51175;51.186;0.276;2023-08-20T00:12:59;101637.97;;;23.74;55.37
64739;BME280;51175;51.186;0.276;2023-08-20T00:13:30;101637.97;;;23.74;55.14
64739;BME280;51175;51.186;0.276;2023-08-20T00:14:00;101635.28;;;23.74;55.26
64739;BME280;51175;51.186;0.276;2023-08-20T00:14:53;101639.06;;;23.73;55.31
64739;BME280;51175;51.186;0.276;2023-08-20T00:15:28;101632.91;;;23.72;55.26
64739;BME280;51175;51.186;0.276;2023-08-20T00:15:59;101637.50;;;23.72;55.31
64739;BME280;51175;51.186;0.276;2023-08-20T00:16:30;101633.22;;;23.71;55.27
64739;BME280;51175;51.186;0.276;2023-08-20T00:17:01;101639.41;;;23.71;55.37
64739;BME280;51175;51.186;0.276;2023-08-20T00:17:33;101634.00;;;23.71;55.29
64739;BME280;51175;51.186;0.276;2023-08-20T00:18:04;101639.41;;;23.71;55.34
64739;BME280;51175;51.186;0.276;2023-08-20T00:18:35;101635.94;;;23.71;55.19
64739;BME280;51175;51.186;0.276;2023-08-20T00:19:05;101640.53;;;23.70;55.15
64739;BME280;51175;51.186;0.276;2023-08-20T00:19:37;101643.22;;;23.70;55.33
64739;BME280;51175;51.186;0.276;2023-08-20T00:20:09;101641.31;;;23.71;55.21
64739;BME280;51175;51.186;0.276;2023-08-20T00:20:46;101640.84;;;23.68;55.32
64739;BME280;51175;51.186;0.276;2023-08-20T00:21:17;101636.25;;;23.69;55.37
64739;BME280;51175;51.186;0.276;2023-08-20T00:21:47;101640.03;;;23.68;55.30
64739;BME280;51175;51.186;0.276;2023-08-20T00:22:18;101640.03;;;23.68;55.36
64739;BME280;51175;51.186;0.276;2023-08-20T00:22:49;101639.28;;;23.67;55.36
64739;BME280;51175;51.186;0.276;2023-08-20T00:23:20;101638.47;;;23.67;55.39
64739;BME280;51175;51.186;0.276;2023-08-20T00:23:50;101647.38;;;23.67;55.31
64739;BME280;51175;51.186;0.276;2023-08-20T00:24:21;101639.56;;;23.66;55.35
64739;BME280;51175;51.186;0.276;2023-08-20T00:24:53;101639.56;;;23.66;55.34
64739;BME280;51175;51.186;0.276;2023-08-20T00:25:24;101641.16;;;23.67;55.42
64739;BME280;51175;51.186;0.276;2023-08-20T00:25:55;101636.09;;;23.65;55.32
64739;BME280;51175;51.186;0.276;2023-08-20T00:26:25;101633.72;;;23.64;55.43
64739;BME280;51175;51.186;0.276;2023-08-20T00:26:56;101639.88;;;23.64;55.29
64739;BME280;51175;51.186;0.276;2023-08-20T00:27:26;101639.88;;;23.64;55.46
64739;BME280;51175;51.186;0.276;2023-08-20T00:27:56;101643.38;;;23.65;55.32
64739;BME280;51175;51.186;0.276;2023-08-20T00:28:27;101642.59;;;23.64;55.40
64739;BME280;51175;51.186;0.276;2023-08-20T00:28:57;101647.19;;;23.64;55.38
64739;BME280;51175;51.186;0.276;2023-08-20T00:29:27;101646.41;;;23.63;55.36
64739;BME280;51175;51.186;0.276;2023-08-20T00:29:58;101645.28;;;23.64;55.48
64739;BME280;51175;51.186;0.276;2023-08-20T00:30:29;101646.41;;;23.63;55.36
64739;BME280;51175;51.186;0.276;2023-08-20T00:31:00;101640.22;;;23.63;55.34
64739;BME280;51175;51.186;0.276;2023-08-20T00:31:31;101645.59;;;23.63;55.14
64739;BME280;51175;51.186;0.276;2023-08-20T00:32:01;101644.03;;;23.62;55.45
64739;BME280;51175;51.186;0.276;2023-08-20T00:32:31;101654.81;;;23.62;55.41
64739;BME280;51175;51.186;0.276;2023-08-20T00:33:02;101640.53;;;23.61;55.39
64739;BME280;51175;51.186;0.276;2023-08-20T00:33:32;101644.03;;;23.62;55.37
64739;BME280;51175;51.186;0.276;2023-08-20T00:34:03;101640.53;;;23.61;55.36
64739;BME280;51175;51.186;0.276;2023-08-20T00:34:33;101645.16;;;23.61;55.31
64739;BME280;51175;51.186;0.276;2023-08-20T00:35:04;101637.84;;;23.61;55.30
64739;BME280;51175;51.186;0.276;2023-08-20T00:35:35;101644.34;;;23.60;55.19
64739;BME280;51175;51.186;0.276;2023-08-20T00:36:05;101645.16;;;23.61;55.26
64739;BME280;51175;51.186;0.276;2023-08-20T00:36:35;101646.25;;;23.60;55.23
64739;BME280;51175;51.186;0.276;2023-08-20T00:37:06;101650.06;;;23.59;55.30
64739;BME280;51175;51.186;0.276;2023-08-20T00:37:36;101650.88;;;23.59;55.30
64739;BME280;51175;51.186;0.276;2023-08-20T00:38:07;101651.97;;;23.58;55.11
64739;BME280;51175;51.186;0.276;2023-08-20T00:38:37;101652.75;;;23.59;55.33
64739;BME280;51175;51.186;0.276;2023-08-20T00:39:08;101651.97;;;23.58;55.37
64739;BME280;51175;51.186;0.276;2023-08-20T00:39:38;101654.66;;;23.58;55.54
64739;BME280;51175;51.186;0.276;2023-08-20T00:40:09;101648.50;;;23.58;55.30
64739;BME280;51175;51.186;0.276;2023-08-20T00:40:40;101650.38;;;23.57;55.42
64739;BME280;51175;51.186;0.276;2023-08-20T00:41:10;101648.50;;;23.58;55.37
64739;BME280;51175;51.186;0.276;2023-08-20T00:41:40;101651.19;;;23.58;55.32
64739;BME280;51175;51.186;0.276;2023-08-20T00:42:11;101638.78;;;23.56;55.33
64739;BME280;51175;51.186;0.276;2023-08-20T00:42:44;101652.28;;;23.56;55.32
64739;BME280;51175;51.186;0.276;2023-08-20T00:43:14;101648.50;;;23.58;55.18
64739;BME280;51175;51.186;0.276;2023-08-20T00:43:45;101649.56;;;23.56;55.29
64739;BME280;51175;51.186;0.276;2023-08-20T00:44:15;101649.56;;;23.56;55.31
64739;BME280;51175;51.186;0.276;2023-08-20T00:44:45;101650.69;;;23.55;55.44
64739;BME280;51175;51.186;0.276;2023-08-20T00:45:16;101654.19;;;23.56;55.17
64739;BME280;51175;51.186;0.276;2023-08-20T00:45:46;101656.91;;;23.56;55.24
64739;BME280;51175;51.186;0.276;2023-08-20T00:46:17;101652.59;;;23.55;55.32
64739;BME280;51175;51.186;0.276;2023-08-20T00:46:49;101649.91;;;23.55;55.42
64739;BME280;51175;51.186;0.276;2023-08-20T00:47:20;101646.44;;;23.54;55.31
64739;BME280;51175;51.186;0.276;2023-08-20T00:47:51;101654.53;;;23.54;55.31
64739;BME280;51175;51.186;0.276;2023-08-20T00:48:23;101653.72;;;23.54;55.14
64739;BME280;51175;51.186;0.276;2023-08-20T00:48:54;101651.03;;;23.54;55.26
64739;BME280;51175;51.186;0.276;2023-08-20T00:49:24;101652.91;;;23.53;55.28
64739;BME280;51175;51.186;0.276;2023-08-20T00:49:55;101652.16;;;23.53;55.37
64739;BME280;51175;51.186;0.276;2023-08-20T00:50:26;101652.91;;;23.53;55.34
64739;BME280;51175;51.186;0.276;2023-08-20T00:50:57;101659.44;;;23.52;55.29
64739;BME280;51175;51.186;0.276;2023-08-20T00:51:28;101660.22;;;23.53;55.37
64739;BME280;51175;51.186;0.276;2023-08-20T00:51:59;101661.00;;;23.53;55.35
64739;BME280;51175;51.186;0.276;2023-08-20T00:52:29;101659.44;;;23.52;55.23
64739;BME280;51175;51.186;0.276;2023-08-20T00:53:00;101660.56;;;23.51;55.36
64739;BME280;51175;51.186;0.276;2023-08-20T00:53:31;101665.63;;;23.53;55.34
64739;BME280;51175;51.186;0.276;2023-08-20T00:54:03;101664.03;;;23.52;55.27
64739;BME280;51175;51.186;0.276;2023-08-20T00:54:36;101662.44;;;23.51;55.34
64739;BME280;51175;51.186;0.276;2023-08-20T00:55:09;101660.56;;;23.51;55.26
64739;BME280;51175;51.186;0.276;2023-08-20T00:55:42;101658.94;;;23.50;55.42
64739;BME280;51175;51.186;0.276;2023-08-20T00:56:13;101664.34;;;23.50;55.39
64739;BME280;51175;51.186;0.276;2023-08-20T00:56:44;101656.56;;;23.49;55.28
64739;BME280;51175;51.186;0.276;2023-08-20T00:57:17;101663.88;;;23.48;55.51
64739;BME280;51175;51.186;0.276;2023-08-20T00:57:48;101660.88;;;23.50;55.33
64739;BME280;51175;51.186;0.276;2023-08-20T00:58:18;101666.59;;;23.48;55.47
64739;BME280;51175;51.186;0.276;2023-08-20T00:58:49;101661.19;;;23.48;55.37
64739;BME280;51175;51.186;0.276;2023-08-20T00:59:20;101667.34;;;23.49;55.21
64739;BME280;51175;51.186;0.276;2023-08-20T00:59:54;101659.59;;;23.47;55.43
64739;BME280;51175;51.186;0.276;2023-08-20T01:00:25;101666.59;;;23.48;55.28
64739;BME280;51175;51.186;0.276;2023-08-20T01:00:55;101665.78;;;23.48;55.32
64739;BME280;51175;51.186;0.276;2023-08-20T01:01:26;101666.91;;;23.47;55.54
64739;BME280;51175;51.186;0.276;2023-08-20T01:01:56;101661.50;;;23.47;55.29
64739;BME280;51175;51.186;0.276;2023-08-20T01:02:26;101664.22;;;23.47;55.38
64739;BME280;51175;51.186;0.276;2023-08-20T01:02:57;101661.50;;;23.47;55.26
64739;BME280;51175;51.186;0.276;2023-08-20T01:03:27;101663.41;;;23.46;55.55
64739;BME280;51175;51.186;0.276;2023-08-20T01:03:58;101666.09;;;23.46;55.35
64739;BME280;51175;51.186;0.276;2023-08-20T01:04:29;101666.09;;;23.46;55.29
64739;BME280;51175;51.186;0.276;2023-08-20T01:05:01;101665.31;;;23.46;55.32
64739;BME280;51175;51.186;0.276;2023-08-20T01:05:38;101669.91;;;23.45;55.52
64739;BME280;51175;51.186;0.276;2023-08-20T01:08:19;101665.94;;;23.42;55.31
64739;BME280;51175;51.186;0.276;2023-08-20T01:09:05;101666.59;;;23.39;55.38
64739;BME280;51175;51.186;0.276;2023-08-20T01:09:49;101660.41;;;23.39;55.28
64739;BME280;51175;51.186;0.276;2023-08-20T01:10:40;101665.00;;;23.38;55.49
64739;BME280;51175;51.186;0.276;2023-08-20T01:11:17;101667.69;;;23.38;55.58
64739;BME280;51175;51.186;0.276;2023-08-20T01:11:57;101668.00;;;23.37;55.66
64739;BME280;51175;51.186;0.276;2023-08-20T01:12:29;101675.28;;;23.36;55.34
64739;BME280;51175;51.186;0.276;2023-08-20T01:13:00;101675.28;;;23.36;55.41
64739;BME280;51175;51.186;0.276;2023-08-20T01:13:31;101672.56;;;23.36;55.70
64739;BME280;51175;51.186;0.276;2023-08-20T01:14:01;101669.13;;;23.36;55.65
64739;BME280;51175;51.186;0.276;2023-08-20T01:14:31;101671.00;;;23.35;55.58
64739;BME280;51175;51.186;0.276;2023-08-20T01:15:02;101682.59;;;23.36;55.41
64739;BME280;51175;51.186;0.276;2023-08-20T01:15:32;101675.28;;;23.36;55.31
64739;BME280;51175;51.186;0.276;2023-08-20T01:16:03;101683.34;;;23.36;55.41
64739;BME280;51175;51.186;0.276;2023-08-20T01:16:42;101674.50;;;23.36;55.49
64739;BME280;51175;51.186;0.276;2023-08-20T01:17:12;101679.88;;;23.36;55.40
64739;BME280;51175;51.186;0.276;2023-08-20T01:17:43;101678.28;;;23.35;55.53
64739;BME280;51175;51.186;0.276;2023-08-20T01:18:16;101678.28;;;23.35;55.47
64739;BME280;51175;51.186;0.276;2023-08-20T01:18:47;101688.28;;;23.34;55.40
64739;BME280;51175;51.186;0.276;2023-08-20T01:19:22;101672.91;;;23.35;55.46
64739;BME280;51175;51.186;0.276;2023-08-20T01:19:53;101677.50;;;23.34;55.40
64739;BME280;51175;51.186;0.276;2023-08-20T01:20:29;101678.59;;;23.33;55.38
64739;BME280;51175;51.186;0.276;2023-08-20T01:21:10;101679.41;;;23.34;55.53
64739;BME280;51175;51.186;0.276;2023-08-20T01:24:03;101674.66;;;23.30;55.51
64739;BME280;51175;51.186;0.276;2023-08-20T01:25:11;101686.53;;;23.29;55.45
64739;BME280;51175;51.186;0.276;2023-08-20T01:26:00;101681.78;;;23.26;55.37
64739;BME280;51175;51.186;0.276;2023-08-20T01:28:31;101681.63;;;23.23;55.63
64739;BME280;51175;51.186;0.276;2023-08-20T01:29:02;101678.94;;;23.23;55.56
64739;BME280;51175;51.186;0.276;2023-08-20T01:29:36;101678.94;;;23.23;55.66
64739;BME280;51175;51.186;0.276;2023-08-20T01:30:06;101679.25;;;23.21;55.51
64739;BME280;51175;51.186;0.276;2023-08-20T01:30:37;101683.53;;;23.22;55.65
64739;BME280;51175;51.186;0.276;2023-08-20T01:31:07;101680.03;;;23.22;55.58
64739;BME280;51175;51.186;0.276;2023-08-20T01:31:39;101680.03;;;23.22;55.48
64739;BME280;51175;51.186;0.276;2023-08-20T01:32:10;101680.03;;;23.22;55.64
64739;BME280;51175;51.186;0.276;2023-08-20T01:32:42;101682.72;;;23.22;55.66
64739;BME280;51175;51.186;0.276;2023-08-20T01:33:13;101673.56;;;23.23;55.36
64739;BME280;51175;51.186;0.276;2023-08-20T01:33:45;101680.03;;;23.22;55.48
64739;BME280;51175;51.186;0.276;2023-08-20T01:34:15;101679.25;;;23.21;55.54
64739;BME280;51175;51.186;0.276;2023-08-20T01:34:46;101677.03;;;23.23;55.56
64739;BME280;51175;51.186;0.276;2023-08-20T01:35:18;101684.34;;;23.23;55.50
64739;BME280;51175;51.186;0.276;2023-08-20T01:35:49;101678.13;;;23.22;55.54
64739;BME280;51175;51.186;0.276;2023-08-20T01:36:20;101677.34;;;23.22;55.62
64739;BME280;51175;51.186;0.276;2023-08-20T01:36:50;101676.56;;;23.21;55.42
64739;BME280;51175;51.186;0.276;2023-08-20T01:37:20;101685.41;;;23.22;55.38
64739;BME280;51175;51.186;0.276;2023-08-20T01:37:52;101676.56;;;23.21;55.45
64739;BME280;51175;51.186;0.276;2023-08-20T01:38:22;101678.13;;;23.22;55.43
64739;BME280;51175;51.186;0.276;2023-08-20T01:38:53;101674.66;;;23.22;55.28
64739;BME280;51175;51.186;0.276;2023-08-20T01:39:23;101676.56;;;23.21;55.49
64739;BME280;51175;51.186;0.276;2023-08-20T01:39:54;101680.03;;;23.22;55.47
64739;BME280;51175;51.186;0.276;2023-08-20T01:40:25;101674.66;;;23.22;55.38
64739;BME280;51175;51.186;0.276;2023-08-20T01:40:56;101677.34;;;23.22;55.30
64739;BME280;51175;51.186;0.276;2023-08-20T01:41:26;101681.16;;;23.21;55.50
64739;BME280;51175;51.186;0.276;2023-08-20T01:41:57;101667.69;;;23.21;55.32
64739;BME280;51175;51.186;0.276;2023-08-20T01:42:27;101677.34;;;23.22;55.42
64739;BME280;51175;51.186;0.276;2023-08-20T01:42:58;101679.25;;;23.21;55.33
64739;BME280;51175;51.186;0.276;2023-08-20T01:43:28;101684.66;;;23.21;55.53
64739;BME280;51175;51.186;0.276;2023-08-20T01:43:59;101680.03;;;23.22;55.45
64739;BME280;51175;51.186;0.276;2023-08-20T01:44:29;101679.25;;;23.21;55.37
64739;BME280;51175;51.186;0.276;2023-08-20T01:44:59;101676.56;;;23.21;55.48
64739;BME280;51175;51.186;0.276;2023-08-20T01:45:30;101676.56;;;23.21;55.45
64739;BME280;51175;51.186;0.276;2023-08-20T01:46:00;101680.84;;;23.22;55.30
64739;BME280;51175;51.186;0.276;2023-08-20T01:46:30;101680.34;;;23.20;55.28
64739;BME280;51175;51.186;0.276;2023-08-20T01:47:01;101679.25;;;23.21;55.16
64739;BME280;51175;51.186;0.276;2023-08-20T01:47:32;101678.47;;;23.21;55.25
64739;BME280;51175;51.186;0.276;2023-08-20T01:48:03;101679.25;;;23.21;55.47
64739;BME280;51175;51.186;0.276;2023-08-20T01:48:34;101675.75;;;23.21;55.12
64739;BME280;51175;51.186;0.276;2023-08-20T01:49:04;101675.75;;;23.21;55.56
64739;BME280;51175;51.186;0.276;2023-08-20T01:49:34;101674.19;;;23.19;55.43
64739;BME280;51175;51.186;0.276;2023-08-20T01:50:05;101674.97;;;23.20;55.37
64739;BME280;51175;51.186;0.276;2023-08-20T01:50:35;101680.34;;;23.20;55.37
64739;BME280;51175;51.186;0.276;2023-08-20T01:51:06;101674.19;;;23.19;55.60
64739;BME280;51175;51.186;0.276;2023-08-20T01:51:36;101671.50;;;23.19;55.25
64739;BME280;51175;51.186;0.276;2023-08-20T01:52:07;101676.06;;;23.19;55.21
64739;BME280;51175;51.186;0.276;2023-08-20T01:52:37;101673.38;;;23.19;55.46
64739;BME280;51175;51.186;0.276;2023-08-20T01:53:07;101667.19;;;23.18;55.40
64739;BME280;51175;51.186;0.276;2023-08-20T01:53:38;101673.38;;;23.19;55.41
64739;BME280;51175;51.186;0.276;2023-08-20T01:54:09;101675.28;;;23.18;55.39
64739;BME280;51175;51.186;0.276;2023-08-20T01:54:39;101677.97;;;23.18;55.42
64739;BME280;51175;51.186;0.276;2023-08-20T01:55:10;101680.66;;;23.18;55.54
64739;BME280;51175;51.186;0.276;2023-08-20T01:55:41;101685.28;;;23.18;55.42
64739;BME280;51175;51.186;0.276;2023-08-20T01:56:12;101684.47;;;23.17;55.41
64739;BME280;51175;51.186;0.276;2023-08-20T01:56:43;101681.78;;;23.17;55.26
64739;BME280;51175;51.186;0.276;2023-08-20T01:57:13;101687.19;;;23.17;55.32
64739;BME280;51175;51.186;0.276;2023-08-20T01:57:44;101685.28;;;23.18;55.40
64739;BME280;51175;51.186;0.276;2023-08-20T01:58:14;101688.75;;;23.18;55.22
64739;BME280;51175;51.186;0.276;2023-08-20T01:58:45;101689.06;;;23.17;55.31
64739;BME280;51175;51.186;0.276;2023-08-20T01:59:15;101682.91;;;23.16;55.44
64739;BME280;51175;51.186;0.276;2023-08-20T01:59:47;101686.38;;;23.17;55.39
64739;BME280;51175;51.186;0.276;2023-08-20T02:00:17;101688.28;;;23.16;55.42
64739;BME280;51175;51.186;0.276;2023-08-20T02:00:48;101688.28;;;23.16;55.36
64739;BME280;51175;51.186;0.276;2023-08-20T02:01:18;101686.38;;;23.17;55.14
64739;BME280;51175;51.186;0.276;2023-08-20T02:01:49;101687.50;;;23.16;55.58
64739;BME280;51175;51.186;0.276;2023-08-20T02:02:19;101684.78;;;23.16;55.30
64739;BME280;51175;51.186;0.276;2023-08-20T02:02:50;101686.69;;;23.15;55.17
64739;BME280;51175;51.186;0.276;2023-08-20T02:03:21;101686.69;;;23.15;55.53
64739;BME280;51175;51.186;0.276;2023-08-20T02:03:51;101688.63;;;23.15;55.55
64739;BME280;51175;51.186;0.276;2023-08-20T02:04:21;101685.91;;;23.15;55.51
64739;BME280;51175;51.186;0.276;2023-08-20T02:04:52;101695.91;;;23.14;55.37
64739;BME280;51175;51.186;0.276;2023-08-20T02:05:22;101689.69;;;23.14;55.36
64739;BME280;51175;51.186;0.276;2023-08-20T02:05:53;101692.41;;;23.14;55.34
64739;BME280;51175;51.186;0.276;2023-08-20T02:06:23;101688.94;;;23.13;55.40
64739;BME280;51175;51.186;0.276;2023-08-20T02:06:53;101693.50;;;23.13;55.45
64739;BME280;51175;51.186;0.276;2023-08-20T02:07:24;101697.00;;;23.13;55.42
64739;BME280;51175;51.186;0.276;2023-08-20T02:07:54;101693.50;;;23.13;55.45
64739;BME280;51175;51.186;0.276;2023-08-20T02:08:24;101690.03;;;23.12;55.52
64739;BME280;51175;51.186;0.276;2023-08-20T02:08:55;101688.13;;;23.13;55.50
64739;BME280;51175;51.186;0.276;2023-08-20T02:09:25;101696.22;;;23.13;55.39
64739;BME280;51175;51.186;0.276;2023-08-20T02:09:56;101700.03;;;23.12;55.41
64739;BME280;51175;51.186;0.276;2023-08-20T02:10:26;101703.50;;;23.12;55.49
64739;BME280;51175;51.186;0.276;2023-08-20T02:11:05;101703.50;;;23.12;55.40
64739;BME280;51175;51.186;0.276;2023-08-20T02:11:36;101697.66;;;23.10;55.45
64739;BME280;51175;51.186;0.276;2023-08-20T02:12:07;101696.53;;;23.11;55.47
64739;BME280;51175;51.186;0.276;2023-08-20T02:12:37;101703.03;;;23.10;55.43
64739;BME280;51175;51.186;0.276;2023-08-20T02:13:07;101703.03;;;23.10;55.41
64739;BME280;51175;51.186;0.276;2023-08-20T02:13:38;101696.03;;;23.09;55.47
64739;BME280;51175;51.186;0.276;2023-08-20T02:14:08;101700.34;;;23.10;55.32
64739;BME280;51175;51.186;0.276;2023-08-20T02:14:39;101702.22;;;23.10;55.30
64739;BME280;51175;51.186;0.276;2023-08-20T02:15:09;101702.22;;;23.10;55.44
64739;BME280;51175;51.186;0.276;2023-08-20T02:15:41;101704.13;;;23.09;55.50
64739;BME280;51175;51.186;0.276;2023-08-20T02:16:11;101704.44;;;23.07;55.34
64739;BME280;51175;51.186;0.276;2023-08-20T02:16:42;101707.63;;;23.10;55.59
64739;BME280;51175;51.186;0.276;2023-08-20T02:17:13;101706.81;;;23.09;55.40
64739;BME280;51175;51.186;0.276;2023-08-20T02:17:44;101700.66;;;23.09;55.41
64739;BME280;51175;51.186;0.276;2023-08-20T02:18:15;101706.81;;;23.09;55.40
64739;BME280;51175;51.186;0.276;2023-08-20T02:18:47;101705.25;;;23.08;55.33
64739;BME280;51175;51.186;0.276;2023-08-20T02:19:17;101704.13;;;23.09;55.33
64739;BME280;51175;51.186;0.276;2023-08-20T02:19:47;101707.94;;;23.08;55.42
64739;BME280;51175;51.186;0.276;2023-08-20T02:20:18;101704.44;;;23.07;55.49
64739;BME280;51175;51.186;0.276;2023-08-20T02:20:48;101711.75;;;23.07;55.40
64739;BME280;51175;51.186;0.276;2023-08-20T02:21:18;101703.66;;;23.07;55.60
64739;BME280;51175;51.186;0.276;2023-08-20T02:21:49;101697.47;;;23.06;55.27
64739;BME280;51175;51.186;0.276;2023-08-20T02:22:19;101710.94;;;23.06;55.36
64739;BME280;51175;51.186;0.276;2023-08-20T02:22:51;101703.97;;;23.05;55.59
64739;BME280;51175;51.186;0.276;2023-08-20T02:23:21;101704.75;;;23.06;55.71
64739;BME280;51175;51.186;0.276;2023-08-20T02:23:52;101700.47;;;23.05;55.39
64739;BME280;51175;51.186;0.276;2023-08-20T02:24:22;101707.44;;;23.06;55.33
64739;BME280;51175;51.186;0.276;2023-08-20T02:24:53;101701.28;;;23.05;55.41
64739;BME280;51175;51.186;0.276;2023-08-20T02:25:23;101700.47;;;23.05;55.47
64739;BME280;51175;51.186;0.276;2023-08-20T02:25:55;101705.88;;;23.05;55.42
64739;BME280;51175;51.186;0.276;2023-08-20T02:26:26;101705.88;;;23.05;55.47
64739;BME280;51175;51.186;0.276;2023-08-20T02:26:56;101702.38;;;23.04;55.39
64739;BME280;51175;51.186;0.276;2023-08-20T02:27:27;101709.69;;;23.04;55.40
64739;BME280;51175;51.186;0.276;2023-08-20T02:27:57;101710.47;;;23.04;55.47
64739;BME280;51175;51.186;0.276;2023-08-20T02:28:27;101704.28;;;23.04;55.24
64739;BME280;51175;51.186;0.276;2023-08-20T02:28:58;101707.75;;;23.04;55.46
64739;BME280;51175;51.186;0.276;2023-08-20T02:29:28;101700.81;;;23.03;55.53
64739;BME280;51175;51.186;0.276;2023-08-20T02:29:59;101711.56;;;23.03;55.36
64739;BME280;51175;51.186;0.276;2023-08-20T02:30:29;101718.84;;;23.03;55.59
64739;BME280;51175;51.186;0.276;2023-08-20T02:31:04;101714.59;;;23.02;55.48
64739;BME280;51175;51.186;0.276;2023-08-20T02:31:35;101711.88;;;23.02;55.31
64739;BME280;51175;51.186;0.276;2023-08-20T02:32:05;101716.16;;;23.03;55.42
64739;BME280;51175;51.186;0.276;2023-08-20T02:32:36;101716.47;;;23.01;55.41
64739;BME280;51175;51.186;0.276;2023-08-20T02:33:09;101713.00;;;23.01;55.58
64739;BME280;51175;51.186;0.276;2023-08-20T02:33:40;101708.41;;;23.01;55.38
64739;BME280;51175;51.186;0.276;2023-08-20T02:34:10;101706.81;;;23.00;55.44
64739;BME280;51175;51.186;0.276;2023-08-20T02:34:41;101706.81;;;23.00;55.64
64739;BME280;51175;51.186;0.276;2023-08-20T02:35:11;101710.59;;;22.99;55.38
64739;BME280;51175;51.186;0.276;2023-08-20T02:35:45;101710.59;;;22.99;55.51
64739;BME280;51175;51.186;0.276;2023-08-20T02:36:15;101711.72;;;22.98;55.59
64739;BME280;51175;51.186;0.276;2023-08-20T02:36:45;101705.53;;;22.98;55.62
64739;BME280;51175;51.186;0.276;2023-08-20T02:37:16;101707.44;;;22.97;55.71
64739;BME280;51175;51.186;0.276;2023-08-20T02:37:46;101710.16;;;22.97;55.65
64739;BME280;51175;51.186;0.276;2023-08-20T02:38:17;101704.75;;;22.97;55.60
64739;BME280;51175;51.186;0.276;2023-08-20T02:38:47;101709.34;;;22.97;55.45
64739;BME280;51175;51.186;0.276;2023-08-20T02:39:18;101707.75;;;22.96;55.46
64739;BME280;51175;51.186;0.276;2023-08-20T02:39:48;101703.94;;;22.97;55.46
64739;BME280;51175;51.186;0.276;2023-08-20T02:40:18;101705.84;;;22.96;55.46
64739;BME280;51175;51.186;0.276;2023-08-20T02:40:49;101700.47;;;22.96;55.53
64739;BME280;51175;51.186;0.276;2023-08-20T02:41:19;101708.53;;;22.96;55.72
64739;BME280;51175;51.186;0.276;2023-08-20T02:41:49;101705.84;;;22.96;55.70
64739;BME280;51175;51.186;0.276;2023-08-20T02:42:20;101701.56;;;22.95;55.74
64739;BME280;51175;51.186;0.276;2023-08-20T02:42:50;101713.94;;;22.96;55.63
64739;BME280;51175;51.186;0.276;2023-08-20T02:43:21;101707.75;;;22.96;55.80
64739;BME280;51175;51.186;0.276;2023-08-20T02:43:51;101709.66;;;22.95;55.63
64739;BME280;51175;51.186;0.276;2023-08-20T02:44:22;101708.84;;;22.94;55.66
64739;BME280;51175;51.186;0.276;2023-08-20T02:44:52;101705.38;;;22.94;55.64
64739;BME280;51175;51.186;0.276;2023-08-20T02:45:22;101702.69;;;22.94;55.51
64739;BME280;51175;51.186;0.276;2023-08-20T02:45:53;101705.38;;;22.94;55.80
64739;BME280;51175;51.186;0.276;2023-08-20T02:46:23;101700.00;;;22.94;56.11
64739;BME280;51175;51.186;0.276;2023-08-20T02:46:54;101708.09;;;22.94;55.75
64739;BME280;51175;51.186;0.276;2023-08-20T02:47:24;101701.88;;;22.93;55.71
64739;BME280;51175;51.186;0.276;2023-08-20T02:47:54;101708.09;;;22.94;55.83
64739;BME280;51175;51.186;0.276;2023-08-20T02:48:25;101702.22;;;22.92;55.80
64739;BME280;51175;51.186;0.276;2023-08-20T02:48:57;101702.22;;;22.92;55.56
64739;BME280;51175;51.186;0.276;2023-08-20T02:49:27;101711.09;;;22.92;55.83
64739;BME280;51175;51.186;0.276;2023-08-20T02:50:01;101707.59;;;22.92;55.96
64739;BME280;51175;51.186;0.276;2023-08-20T02:50:31;101712.97;;;22.92;55.91
64739;BME280;51175;51.186;0.276;2023-08-20T02:51:01;101705.22;;;22.90;55.91